地図

経路データ

SID SEASON NUMBER BASIN SUBBASIN NAME ISO_TIME NATURE LAT LON WMO_WIND WMO_PRES WMO_AGENCY TRACK_TYPE DIST2LAND LANDFALL IFLAG USA_AGENCY USA_ATCF_ID USA_LAT USA_LON USA_RECORD USA_STATUS USA_WIND USA_PRES USA_SSHS USA_R34_NE USA_R34_SE USA_R34_SW USA_R34_NW USA_R50_NE USA_R50_SE USA_R50_SW USA_R50_NW USA_R64_NE USA_R64_SE USA_R64_SW USA_R64_NW USA_POCI USA_ROCI USA_RMW USA_EYE TOKYO_LAT TOKYO_LON TOKYO_GRADE TOKYO_WIND TOKYO_PRES TOKYO_R50_DIR TOKYO_R50_LONG TOKYO_R50_SHORT TOKYO_R30_DIR TOKYO_R30_LONG TOKYO_R30_SHORT TOKYO_LAND CMA_LAT CMA_LON CMA_CAT CMA_WIND CMA_PRES HKO_LAT HKO_LON HKO_CAT HKO_WIND HKO_PRES NEWDELHI_LAT NEWDELHI_LON NEWDELHI_GRADE NEWDELHI_WIND NEWDELHI_PRES NEWDELHI_CI NEWDELHI_DP NEWDELHI_POCI REUNION_LAT REUNION_LON REUNION_TYPE REUNION_WIND REUNION_PRES REUNION_TNUM REUNION_CI REUNION_RMW REUNION_R34_NE REUNION_R34_SE REUNION_R34_SW REUNION_R34_NW REUNION_R50_NE REUNION_R50_SE REUNION_R50_SW REUNION_R50_NW REUNION_R64_NE REUNION_R64_SE REUNION_R64_SW REUNION_R64_NW BOM_LAT BOM_LON BOM_TYPE BOM_WIND BOM_PRES BOM_TNUM BOM_CI BOM_RMW BOM_R34_NE BOM_R34_SE BOM_R34_SW BOM_R34_NW BOM_R50_NE BOM_R50_SE BOM_R50_SW BOM_R50_NW BOM_R64_NE BOM_R64_SE BOM_R64_SW BOM_R64_NW BOM_ROCI BOM_POCI BOM_EYE BOM_POS_METHOD BOM_PRES_METHOD NADI_LAT NADI_LON NADI_CAT NADI_WIND NADI_PRES WELLINGTON_LAT WELLINGTON_LON WELLINGTON_WIND WELLINGTON_PRES DS824_LAT DS824_LON DS824_STAGE DS824_WIND DS824_PRES TD9636_LAT TD9636_LON TD9636_STAGE TD9636_WIND TD9636_PRES TD9635_LAT TD9635_LON TD9635_WIND TD9635_PRES TD9635_ROCI NEUMANN_LAT NEUMANN_LON NEUMANN_CLASS NEUMANN_WIND NEUMANN_PRES MLC_LAT MLC_LON MLC_CLASS MLC_WIND MLC_PRES USA_GUST BOM_GUST BOM_GUST_PER REUNION_GUST REUNION_GUST_PER USA_SEAHGT USA_SEARAD_NE USA_SEARAD_SE USA_SEARAD_SW USA_SEARAD_NW STORM_SPEED STORM_DIR
1924042S13062 1924 5 SI MM NOT_NAMED 1924-02-11 00:00:00 TS -12.8000 62.3000 main 952 912 _________O____ -1 -12.8000 62.3000 TC 25 8 220
1924042S13062 1924 5 SI MM NOT_NAMED 1924-02-11 03:00:00 TS -13.0975 62.0501 main 912 867 _________P____ -1 -13.0975 62.0501 TC 25 8 219
1924042S13062 1924 5 SI MM NOT_NAMED 1924-02-11 06:00:00 TS -13.4000 61.8000 main 867 827 _________O____ -1 -13.4000 61.8000 TC 25 8 219
1924042S13062 1924 5 SI MM NOT_NAMED 1924-02-11 09:00:00 TS -13.7075 61.5500 main 822 782 _________P____ -1 -13.7075 61.5500 TC 25 8 219
1924042S13062 1924 5 SI MM NOT_NAMED 1924-02-11 12:00:00 TS -14.0000 61.3000 main 782 752 _________O____ -1 -14.0000 61.3000 TC 25 7 221
1924042S13062 1924 5 SI MM NOT_NAMED 1924-02-11 15:00:00 TS -14.2575 61.0499 main 737 707 _________P____ -1 -14.2575 61.0499 TC 25 7 224
1924042S13062 1924 5 SI MM NOT_NAMED 1924-02-11 18:00:00 TS -14.5000 60.8000 main 707 678 _________O____ -1 -14.5000 60.8000 TC 25 7 225
1924042S13062 1924 5 SI MM NOT_NAMED 1924-02-11 21:00:00 TS -14.7349 60.5574 main 678 633 _________P____ -1 -14.7349 60.5574 TC 25 7 224
1924042S13062 1924 5 SI MM NOT_NAMED 1924-02-12 00:00:00 TS -15.0000 60.3000 main 633 589 _________O____ -1 -15.0000 60.3000 TC 25 8 223
1924042S13062 1924 5 SI MM NOT_NAMED 1924-02-12 03:00:00 TS -15.3201 59.9851 main 589 535 _________P____ -1 -15.3201 59.9851 TC 25 9 220
1924042S13062 1924 5 SI MM NOT_NAMED 1924-02-12 06:00:00 TS -15.7000 59.7000 main 535 486 _________O____ -1 -15.7000 59.7000 TC 25 9 211
1924042S13062 1924 5 SI MM NOT_NAMED 1924-02-12 09:00:00 TS -16.1275 59.4901 main 486 430 _________P____ -1 -16.1275 59.4901 TC 25 10 198
1924042S13062 1924 5 SI MM NOT_NAMED 1924-02-12 12:00:00 TS -16.6000 59.4000 main 430 380 _________O____ -1 -16.6000 59.4000 TC 25 10 182
1924042S13062 1924 5 SI MM NOT_NAMED 1924-02-12 15:00:00 TS -17.1000 59.4548 main 385 343 _________P____ -1 -17.1000 59.4548 TC 25 10 169
1924042S13062 1924 5 SI MM NOT_NAMED 1924-02-12 18:00:00 TS -17.6000 59.6000 main 343 306 _________O____ -1 -17.6000 59.6000 TC 25 10 164
1924042S13062 1924 5 SI MM NOT_NAMED 1924-02-12 21:00:00 TS -18.0875 59.7574 main 314 292 _________P____ -1 -18.0875 59.7574 TC 25 10 162
1924042S13062 1924 5 SI MM NOT_NAMED 1924-02-13 00:00:00 TS -18.5000 59.9000 main 292 278 _________O____ -1 -18.5000 59.9000 TC 25 7 164
1924042S13062 1924 5 SI MM NOT_NAMED 1924-02-13 03:00:00 TS -18.7800 59.9651 main 281 270 _________P____ -1 -18.7800 59.9651 TC 25 5 169
1924042S13062 1924 5 SI MM NOT_NAMED 1924-02-13 06:00:00 TS -19.0000 60.0000 main 270 261 _________O____ -1 -19.0000 60.0000 TC 25 5 173
1924042S13062 1924 5 SI MM NOT_NAMED 1924-02-13 09:00:00 TS -19.2575 60.0276 main 255 251 _________P____ -1 -19.2575 60.0276 TC 25 5 169
1924042S13062 1924 5 SI MM NOT_NAMED 1924-02-13 12:00:00 TS -19.5000 60.1000 main 256 252 _________O____ -1 -19.5000 60.1000 TC 25 5 155
1924042S13062 1924 5 SI MM NOT_NAMED 1924-02-13 15:00:00 TS -19.7225 60.2625 main 269 267 _________P____ -1 -19.7225 60.2625 TC 25 6 137
1924042S13062 1924 5 SI MM NOT_NAMED 1924-02-13 18:00:00 TS -19.9000 60.5000 main 285 285 _________O____ -1 -19.9000 60.5000 TC 25 6 121
1924042S13062 1924 5 SI MM NOT_NAMED 1924-02-13 21:00:00 TS -20.0074 60.7702 main 314 314 _________P____ -1 -20.0074 60.7702 TC 25 6 110
1924042S13062 1924 5 SI MM NOT_NAMED 1924-02-14 00:00:00 TS -20.1000 61.1000 main 345 345 _________O____ -1 -20.1000 61.1000 TC 25 7 110
1924042S13062 1924 5 SI MM NOT_NAMED 1924-02-14 03:00:00 TS -20.2500 61.4849 main 386 385 _________P____ -1 -20.2500 61.4849 TC 25 8 112
1924042S13062 1924 5 SI MM NOT_NAMED 1924-02-14 06:00:00 TS -20.4000 61.9000 main 427 427 _________O____ -1 -20.4000 61.9000 TC 25 8 108
1924042S13062 1924 5 SI MM NOT_NAMED 1924-02-14 09:00:00 TS -20.4999 62.2927 main 469 469 _________P____ -1 -20.4999 62.2927 TC 25 8 105
1924042S13062 1924 5 SI MM NOT_NAMED 1924-02-14 12:00:00 TS -20.6000 62.7000 main 511 511 _________O____ -1 -20.6000 62.7000 TC 25 8 108
1924042S13062 1924 5 SI MM NOT_NAMED 1924-02-14 15:00:00 TS -20.7499 63.1350 main 553 553 _________P____ -1 -20.7499 63.1350 TC 25 9 110
1924042S13062 1924 5 SI MM NOT_NAMED 1924-02-14 18:00:00 TS -20.9000 63.6000 main 607 607 _________O____ -1 -20.9000 63.6000 TC 25 9 106
1924042S13062 1924 5 SI MM NOT_NAMED 1924-02-14 21:00:00 TS -21.0128 64.0925 main 660 660 _________P____ -1 -21.0128 64.0925 TC 25 10 102
1924042S13062 1924 5 SI MM NOT_NAMED 1924-02-15 00:00:00 TS -21.1000 64.6000 main 712 _________O____ -1 -21.1000 64.6000 TC 25 10 100

IBTrACS Databaseについて

本データベースは、米国NOAAが公開する1842年以降の世界の熱帯低気圧のベストトラックデータアーカイブInternational Best Track Archive for Climate Stewardship (IBTrACS)を、ウェブで閲覧しやすい形式に変換したものです。

最終更新日:2021-12-03